Time,TemperatureF,DewpointF,PressureIn,WindDirection,WindDirectionDegrees,WindSpeedMPH,WindSpeedGustMPH,Humidity,HourlyPrecipIn,Conditions,Clouds,dailyrainin,SoftwareType,DateUTC
2013-05-24 00:03:00,48.0,44.0,-100.00,NNW,330,12.0,18.0,86,0.00,,,-99.99,,2013-05-24 04:03:00,
2013-05-24 00:12:00,48.0,44.0,-100.00,NNW,335,11.0,17.0,85,0.00,,,-99.99,,2013-05-24 04:12:00,
2013-05-24 00:22:00,48.0,44.0,-100.00,North,350,10.0,21.0,86,0.00,,,-99.99,,2013-05-24 04:22:00,
2013-05-24 00:33:00,47.0,45.0,-100.00,North,5,6.0,14.0,90,0.00,,,-99.99,,2013-05-24 04:33:00,
2013-05-24 00:42:00,47.0,45.0,-100.00,North,0,4.0,16.0,92,0.00,,,-99.99,,2013-05-24 04:42:00,
2013-05-24 00:53:00,47.0,45.0,-100.00,NE,35,3.0,12.0,92,0.00,,,-99.99,,2013-05-24 04:53:00,
2013-05-24 01:02:00,47.0,44.0,-100.00,NNW,345,6.0,11.0,92,0.00,,,-99.99,,2013-05-24 05:02:00,
2013-05-24 01:12:00,47.0,45.0,-100.00,NNE,25,2.0,10.0,91,0.00,,,-99.99,,2013-05-24 05:12:00,
2013-05-24 01:22:00,47.0,44.0,-100.00,North,355,3.0,10.0,91,0.00,,,-99.99,,2013-05-24 05:22:00,
2013-05-24 01:32:00,47.0,44.0,-100.00,North,0,4.0,12.0,91,0.00,,,-99.99,,2013-05-24 05:32:00,
2013-05-24 01:42:00,47.0,44.0,-100.00,North,355,6.0,14.0,90,0.00,,,-99.99,,2013-05-24 05:42:00,
2013-05-24 01:52:00,46.0,44.0,-100.00,North,0,6.0,11.0,92,0.00,,,-99.99,,2013-05-24 05:52:00,
2013-05-24 02:02:00,46.0,44.0,-100.00,NNE,25,5.0,12.0,92,0.00,,,-99.99,,2013-05-24 06:02:00,
2013-05-24 02:12:00,46.0,44.0,-100.00,North,355,6.0,13.0,92,0.00,,,-99.99,,2013-05-24 06:12:00,
2013-05-24 02:21:00,46.0,44.0,-100.00,NNE,15,4.0,14.0,91,0.00,,,-99.99,,2013-05-24 06:21:00,
2013-05-24 02:32:00,46.0,44.0,-100.00,North,5,5.0,14.0,89,0.00,,,-99.99,,2013-05-24 06:32:00,
2013-05-24 02:42:00,46.0,44.0,-100.00,NNE,15,4.0,9.0,90,0.00,,,-99.99,,2013-05-24 06:42:00,
2013-05-24 02:52:00,46.0,43.0,-100.00,NE,50,5.0,11.0,89,0.00,,,-99.99,,2013-05-24 06:52:00,
2013-05-24 03:02:00,46.0,44.0,-100.00,NNW,345,4.0,10.0,91,0.00,,,-99.99,,2013-05-24 07:02:00,
2013-05-24 03:11:00,46.0,43.0,-100.00,NNE,20,6.0,11.0,89,0.00,,,-99.99,,2013-05-24 07:11:00,
2013-05-24 03:22:00,46.0,43.0,-100.00,NNW,340,6.0,11.0,89,0.00,,,-99.99,,2013-05-24 07:22:00,
2013-05-24 03:32:00,46.0,43.0,-100.00,North,0,3.0,9.0,88,0.00,,,-99.99,,2013-05-24 07:32:00,
2013-05-24 03:42:00,46.0,42.0,-100.00,NNW,340,6.0,12.0,84,0.00,,,-99.99,,2013-05-24 07:42:00,
2013-05-24 03:52:00,47.0,41.0,-100.00,NNW,335,4.0,11.0,81,0.00,,,-99.99,,2013-05-24 07:52:00,
2013-05-24 04:02:00,46.0,39.0,-100.00,North,350,7.0,14.0,76,0.00,,,-99.99,,2013-05-24 08:02:00,
2013-05-24 04:11:00,46.0,39.0,-100.00,North,0,4.0,13.0,76,0.00,,,-99.99,,2013-05-24 08:11:00,
2013-05-24 04:22:00,46.0,39.0,-100.00,North,0,4.0,11.0,76,0.00,,,-99.99,,2013-05-24 08:22:00,
2013-05-24 04:33:00,46.0,40.0,-100.00,North,5,2.0,9.0,77,0.00,,,-99.99,,2013-05-24 08:33:00,
2013-05-24 04:42:00,46.0,39.0,-100.00,NNW,340,7.0,11.0,75,0.00,,,-99.99,,2013-05-24 08:42:00,
2013-05-24 04:52:00,46.0,39.0,-100.00,NNW,335,6.0,12.0,77,0.00,,,-99.99,,2013-05-24 08:52:00,
2013-05-24 05:02:00,46.0,39.0,-100.00,NNW,335,6.0,12.0,77,0.00,,,-99.99,,2013-05-24 09:02:00,
2013-05-24 05:11:00,46.0,40.0,-100.00,NNE,30,4.0,9.0,78,0.00,,,-99.99,,2013-05-24 09:11:00,
2013-05-24 05:21:00,46.0,40.0,-100.00,North,5,2.0,9.0,79,0.00,,,-99.99,,2013-05-24 09:21:00,
2013-05-24 05:32:00,46.0,40.0,-100.00,North,350,3.0,9.0,80,0.00,,,-99.99,,2013-05-24 09:32:00,
2013-05-24 05:42:00,46.0,40.0,-100.00,North,0,4.0,7.0,81,0.00,,,-99.99,,2013-05-24 09:42:00,
2013-05-24 05:52:00,46.0,40.0,-100.00,North,350,3.0,8.0,80,0.00,,,-99.99,,2013-05-24 09:52:00,
2013-05-24 06:03:00,46.0,40.0,-100.00,NNW,335,4.0,8.0,80,0.00,,,-99.99,,2013-05-24 10:03:00,
2013-05-24 06:12:00,46.0,40.0,-100.00,NW,325,2.0,7.0,82,0.00,,,-99.99,,2013-05-24 10:12:00,
2013-05-24 06:22:00,46.0,40.0,-100.00,SSE,150,1.0,6.0,82,0.00,,,-99.99,,2013-05-24 10:22:00,
2013-05-24 06:33:00,46.0,40.0,-100.00,NNW,330,4.0,8.0,80,0.00,,,-99.99,,2013-05-24 10:33:00,
2013-05-24 06:42:00,46.0,40.0,-100.00,NW,325,4.0,7.0,80,0.00,,,-99.99,,2013-05-24 10:42:00,
2013-05-24 06:52:00,46.0,41.0,-100.00,North,350,4.0,7.0,81,0.00,,,-99.99,,2013-05-24 10:52:00,
2013-05-24 07:02:00,46.0,41.0,-100.00,NNW,335,4.0,7.0,82,0.00,,,-99.99,,2013-05-24 11:02:00,
2013-05-24 07:12:00,46.0,42.0,-100.00,NNW,330,4.0,7.0,84,0.00,,,-99.99,,2013-05-24 11:12:00,
2013-05-24 07:22:00,46.0,42.0,-100.00,NNW,330,4.0,6.0,85,0.00,,,-99.99,,2013-05-24 11:22:00,
2013-05-24 07:32:00,47.0,42.0,-100.00,NNW,330,2.0,6.0,84,0.00,,,-99.99,,2013-05-24 11:32:00,
2013-05-24 07:42:00,47.0,42.0,-100.00,NW,325,5.0,9.0,83,0.00,,,-99.99,,2013-05-24 11:42:00,
2013-05-24 07:51:00,46.0,41.0,-100.00,NW,325,10.0,16.0,81,0.00,,,-99.99,,2013-05-24 11:51:00,
2013-05-24 08:02:00,46.0,40.0,-100.00,NW,325,7.0,13.0,81,0.00,,,-99.99,,2013-05-24 12:02:00,
2013-05-24 08:11:00,47.0,40.0,-100.00,North,350,7.0,14.0,78,0.00,,,-99.99,,2013-05-24 12:11:00,
2013-05-24 08:22:00,47.0,41.0,-100.00,NW,325,7.0,14.0,79,0.00,,,-99.99,,2013-05-24 12:22:00,
2013-05-24 08:32:00,46.0,40.0,-100.00,NNW,330,12.0,16.0,78,0.00,,,-99.99,,2013-05-24 12:32:00,
2013-05-24 08:42:00,46.0,40.0,-100.00,NW,325,9.0,13.0,78,0.00,,,-99.99,,2013-05-24 12:42:00,
2013-05-24 08:52:00,46.0,40.0,-100.00,NW,325,9.0,13.0,78,0.00,,,-99.99,,2013-05-24 12:52:00,
2013-05-24 09:02:00,48.0,40.0,-100.00,NW,325,10.0,14.0,74,0.00,,,-99.99,,2013-05-24 13:02:00,
2013-05-24 09:11:00,49.0,40.0,-100.00,NNW,335,9.0,14.0,73,0.00,,,-99.99,,2013-05-24 13:11:00,
2013-05-24 09:21:00,48.0,40.0,-100.00,NW,315,11.0,16.0,73,0.00,,,-99.99,,2013-05-24 13:21:00,
2013-05-24 09:32:00,47.0,39.0,-100.00,NW,320,10.0,16.0,74,0.00,,,-99.99,,2013-05-24 13:32:00,
2013-05-24 09:42:00,47.0,40.0,-100.00,NNW,335,9.0,15.0,75,0.00,,,-99.99,,2013-05-24 13:42:00,
2013-05-24 09:52:00,48.0,40.0,-100.00,North,355,6.0,12.0,73,0.00,,,-99.99,,2013-05-24 13:52:00,
2013-05-24 10:02:00,48.0,39.0,-100.00,NNW,340,7.0,12.0,70,0.00,,,-99.99,,2013-05-24 14:02:00,
2013-05-24 10:11:00,48.0,39.0,-100.00,NW,325,10.0,14.0,69,0.00,,,-99.99,,2013-05-24 14:11:00,
2013-05-24 10:21:00,50.0,40.0,-100.00,NNW,330,9.0,14.0,67,0.00,,,-99.99,,2013-05-24 14:21:00,
2013-05-24 10:32:00,49.0,37.0,-100.00,NW,315,12.0,17.0,64,0.00,,,-99.99,,2013-05-24 14:32:00,
2013-05-24 10:42:00,49.0,37.0,-100.00,NNW,330,11.0,17.0,63,0.00,,,-99.99,,2013-05-24 14:42:00,
2013-05-24 10:52:00,49.0,37.0,-100.00,NNW,330,11.0,17.0,63,0.00,,,-99.99,,2013-05-24 14:52:00,
2013-05-24 11:02:00,50.0,37.0,-100.00,NNW,340,10.0,16.0,61,0.00,,,-99.99,,2013-05-24 15:02:00,
2013-05-24 11:11:00,51.0,37.0,-100.00,NNW,335,14.0,17.0,57,0.00,,,-99.99,,2013-05-24 15:11:00,
2013-05-24 11:21:00,50.0,37.0,-100.00,NW,320,11.0,16.0,59,0.00,,,-99.99,,2013-05-24 15:21:00,
2013-05-24 11:33:00,51.0,37.0,-100.00,NW,320,11.0,18.0,59,0.00,,,-99.99,,2013-05-24 15:33:00,
2013-05-24 11:43:00,52.0,37.0,-100.00,NW,325,13.0,19.0,57,0.00,,,-99.99,,2013-05-24 15:43:00,
2013-05-24 11:52:00,52.0,36.0,-100.00,NNW,330,12.0,19.0,54,0.00,,,-99.99,,2013-05-24 15:52:00,
2013-05-24 12:03:00,52.0,36.0,-100.00,NNW,340,7.0,17.0,53,0.00,,,-99.99,,2013-05-24 16:03:00,
2013-05-24 12:12:00,52.0,36.0,-100.00,NNW,330,11.0,17.0,54,0.00,,,-99.99,,2013-05-24 16:12:00,
2013-05-24 12:22:00,53.0,36.0,-100.00,NW,325,7.0,16.0,52,0.00,,,-99.99,,2013-05-24 16:22:00,
2013-05-24 12:32:00,54.0,37.0,-100.00,NW,310,11.0,20.0,51,0.00,,,-99.99,,2013-05-24 16:32:00,
2013-05-24 12:42:00,54.0,36.0,-100.00,NW,325,11.0,17.0,50,0.00,,,-99.99,,2013-05-24 16:42:00,
2013-05-24 12:52:00,55.0,37.0,-100.00,North,350,9.0,16.0,50,0.00,,,-99.99,,2013-05-24 16:52:00,
2013-05-24 13:02:00,56.0,37.0,-100.00,NNW,330,9.0,14.0,48,0.00,,,-99.99,,2013-05-24 17:02:00,
2013-05-24 13:12:00,55.0,35.0,-100.00,NNW,330,10.0,21.0,47,0.00,,,-99.99,,2013-05-24 17:12:00,
2013-05-24 13:22:00,56.0,37.0,-100.00,NNW,340,6.0,17.0,48,0.00,,,-99.99,,2013-05-24 17:22:00,
2013-05-24 13:32:00,56.0,36.0,-100.00,NNW,340,11.0,17.0,46,0.00,,,-99.99,,2013-05-24 17:32:00,
2013-05-24 13:42:00,56.0,36.0,-100.00,NW,320,7.0,19.0,46,0.00,,,-99.99,,2013-05-24 17:42:00,
2013-05-24 13:52:00,56.0,35.0,-100.00,NNW,340,10.0,17.0,44,0.00,,,-99.99,,2013-05-24 17:52:00,
2013-05-24 14:01:00,57.0,35.0,-100.00,NNW,340,9.0,16.0,43,0.00,,,-99.99,,2013-05-24 18:01:00,
2013-05-24 14:12:00,57.0,35.0,-100.00,NW,310,9.0,16.0,44,0.00,,,-99.99,,2013-05-24 18:12:00,
2013-05-24 14:21:00,57.0,36.0,-100.00,NW,305,10.0,21.0,45,0.00,,,-99.99,,2013-05-24 18:21:00,
2013-05-24 14:32:00,58.0,35.0,-100.00,NNW,335,10.0,16.0,41,0.00,,,-99.99,,2013-05-24 18:32:00,
2013-05-24 14:42:00,58.0,37.0,-100.00,NW,310,12.0,22.0,45,0.00,,,-99.99,,2013-05-24 18:42:00,
2013-05-24 14:51:00,58.0,35.0,-100.00,NNW,330,7.0,15.0,42,0.00,,,-99.99,,2013-05-24 18:51:00,
2013-05-24 15:01:00,59.0,35.0,-100.00,NW,310,9.0,15.0,40,0.00,,,-99.99,,2013-05-24 19:01:00,
2013-05-24 15:11:00,59.0,38.0,-100.00,WNW,295,9.0,12.0,45,0.00,,,-99.99,,2013-05-24 19:11:00,
2013-05-24 15:21:00,60.0,36.0,-100.00,NW,320,11.0,18.0,40,0.00,,,-99.99,,2013-05-24 19:21:00,
2013-05-24 15:32:00,59.0,35.0,-100.00,NW,315,9.0,19.0,39,0.00,,,-99.99,,2013-05-24 19:32:00,
2013-05-24 15:42:00,60.0,35.0,-100.00,NNW,335,7.0,17.0,39,0.00,,,-99.99,,2013-05-24 19:42:00,
2013-05-24 15:52:00,61.0,34.0,-100.00,NNW,340,12.0,19.0,36,0.00,,,-99.99,,2013-05-24 19:52:00,
2013-05-24 16:02:00,61.0,33.0,-100.00,North,0,9.0,16.0,34,0.00,,,-99.99,,2013-05-24 20:02:00,
2013-05-24 16:11:00,60.0,34.0,-100.00,NNW,335,11.0,16.0,36,0.00,,,-99.99,,2013-05-24 20:11:00,
2013-05-24 16:21:00,60.0,34.0,-100.00,NNW,335,11.0,16.0,36,0.00,,,-99.99,,2013-05-24 20:21:00,
2013-05-24 16:32:00,61.0,34.0,-100.00,NW,310,9.0,17.0,36,0.00,,,-99.99,,2013-05-24 20:32:00,
2013-05-24 16:42:00,61.0,33.0,-100.00,NW,320,12.0,19.0,34,0.00,,,-99.99,,2013-05-24 20:42:00,
2013-05-24 16:52:00,62.0,34.0,-100.00,NW,325,6.0,17.0,34,0.00,,,-99.99,,2013-05-24 20:52:00,
2013-05-24 17:01:00,62.0,32.0,-100.00,NW,320,12.0,18.0,33,0.00,,,-99.99,,2013-05-24 21:01:00,
2013-05-24 17:11:00,62.0,32.0,-100.00,NW,320,8.0,19.0,33,0.00,,,-99.99,,2013-05-24 21:11:00,
2013-05-24 17:21:00,62.0,31.0,-100.00,NNW,335,13.0,16.0,32,0.00,,,-99.99,,2013-05-24 21:21:00,
2013-05-24 17:33:00,62.0,32.0,-100.00,NW,325,15.0,20.0,32,0.00,,,-99.99,,2013-05-24 21:33:00,
2013-05-24 17:42:00,62.0,33.0,-100.00,North,350,9.0,19.0,33,0.00,,,-99.99,,2013-05-24 21:42:00,
2013-05-24 17:53:00,63.0,35.0,-100.00,NW,320,5.0,12.0,34,0.00,,,-99.99,,2013-05-24 21:53:00,
2013-05-24 18:03:00,62.0,33.0,-100.00,NNW,335,7.0,16.0,32,0.00,,,-99.99,,2013-05-24 22:03:00,
2013-05-24 18:12:00,62.0,31.0,-100.00,NNW,335,10.0,16.0,30,0.00,,,-99.99,,2013-05-24 22:12:00,
2013-05-24 18:22:00,62.0,31.0,-100.00,NNW,335,9.0,18.0,31,0.00,,,-99.99,,2013-05-24 22:22:00,
2013-05-24 18:33:00,62.0,36.0,-100.00,NW,325,4.0,12.0,36,0.00,,,-99.99,,2013-05-24 22:33:00,
2013-05-24 18:42:00,62.0,32.0,-100.00,NNW,335,9.0,17.0,32,0.00,,,-99.99,,2013-05-24 22:42:00,
2013-05-24 18:52:00,62.0,31.0,-100.00,NNW,340,10.0,14.0,31,0.00,,,-99.99,,2013-05-24 22:52:00,
2013-05-24 19:02:00,62.0,32.0,-100.00,NW,325,9.0,16.0,32,0.00,,,-99.99,,2013-05-24 23:02:00,
2013-05-24 19:11:00,62.0,31.0,-100.00,NNW,330,10.0,16.0,31,0.00,,,-99.99,,2013-05-24 23:11:00,
2013-05-24 19:22:00,62.0,32.0,-100.00,NNW,340,9.0,16.0,32,0.00,,,-99.99,,2013-05-24 23:22:00,
2013-05-24 19:32:00,61.0,33.0,-100.00,WNW,300,7.0,14.0,34,0.00,,,-99.99,,2013-05-24 23:32:00,
2013-05-24 19:42:00,62.0,33.0,-100.00,NNW,330,6.0,12.0,34,0.00,,,-99.99,,2013-05-24 23:42:00,
2013-05-24 19:52:00,61.0,31.0,-100.00,NNW,335,5.0,15.0,32,0.00,,,-99.99,,2013-05-24 23:52:00,
2013-05-24 20:01:00,62.0,33.0,-100.00,NW,320,4.0,9.0,33,0.00,,,-99.99,,2013-05-25 00:01:00,
2013-05-24 20:12:00,61.0,33.0,-100.00,NW,320,4.0,9.0,34,0.00,,,-99.99,,2013-05-25 00:12:00,
2013-05-24 20:21:00,60.0,33.0,-100.00,NNE,25,3.0,10.0,34,0.00,,,-99.99,,2013-05-25 00:21:00,
2013-05-24 20:32:00,60.0,34.0,-100.00,NE,55,1.0,7.0,38,0.00,,,-99.99,,2013-05-25 00:32:00,
2013-05-24 20:42:00,59.0,32.0,-100.00,North,350,2.0,4.0,36,0.00,,,-99.99,,2013-05-25 00:42:00,
2013-05-24 20:51:00,58.0,32.0,-100.00,NNW,340,2.0,6.0,37,0.00,,,-99.99,,2013-05-25 00:51:00,
2013-05-24 21:01:00,57.0,32.0,-100.00,North,5,2.0,7.0,38,0.00,,,-99.99,,2013-05-25 01:01:00,
2013-05-24 21:11:00,57.0,32.0,-100.00,NE,35,1.0,4.0,39,0.00,,,-99.99,,2013-05-25 01:11:00,
2013-05-24 21:22:00,55.0,33.0,-100.00,NNE,20,0.0,2.0,43,0.00,,,-99.99,,2013-05-25 01:22:00,
2013-05-24 21:32:00,55.0,34.0,-100.00,NE,50,1.0,2.0,44,0.00,,,-99.99,,2013-05-25 01:32:00,
2013-05-24 21:42:00,55.0,34.0,-100.00,North,5,1.0,3.0,45,0.00,,,-99.99,,2013-05-25 01:42:00,
2013-05-24 21:52:00,54.0,34.0,-100.00,West,270,0.0,2.0,46,0.00,,,-99.99,,2013-05-25 01:52:00,
2013-05-24 22:02:00,54.0,34.0,-100.00,NNE,30,1.0,2.0,45,0.00,,,-99.99,,2013-05-25 02:02:00,
2013-05-24 22:12:00,54.0,34.0,-100.00,North,0,1.0,3.0,46,0.00,,,-99.99,,2013-05-25 02:12:00,
2013-05-24 22:21:00,54.0,34.0,-100.00,North,0,1.0,3.0,46,0.00,,,-99.99,,2013-05-25 02:21:00,
2013-05-24 22:32:00,53.0,34.0,-100.00,NE,55,1.0,3.0,48,0.00,,,-99.99,,2013-05-25 02:32:00,
2013-05-24 22:42:00,53.0,34.0,-100.00,ENE,65,1.0,4.0,48,0.00,,,-99.99,,2013-05-25 02:42:00,
2013-05-24 22:51:00,53.0,35.0,-100.00,NE,45,1.0,4.0,49,0.00,,,-99.99,,2013-05-25 02:51:00,
2013-05-24 23:02:00,52.0,35.0,-100.00,North,5,1.0,4.0,50,0.00,,,-99.99,,2013-05-25 03:02:00,
2013-05-24 23:11:00,52.0,35.0,-100.00,NNE,30,1.0,3.0,52,0.00,,,-99.99,,2013-05-25 03:11:00,
2013-05-24 23:21:00,51.0,35.0,-100.00,NNE,30,0.0,3.0,53,0.00,,,-99.99,,2013-05-25 03:21:00,
2013-05-24 23:32:00,50.0,36.0,-100.00,ESE,115,1.0,3.0,57,0.00,,,-99.99,,2013-05-25 03:32:00,
2013-05-24 23:43:00,49.0,36.0,-100.00,East,90,1.0,2.0,60,0.00,,,-99.99,,2013-05-25 03:43:00,
2013-05-24 23:53:00,48.0,36.0,-100.00,East,85,2.0,2.0,61,0.00,,,-99.99,,2013-05-25 03:53:00,